createdAt,value
2019-05-19T00:00:28.699Z,15.40
2019-05-19T00:05:26.210Z,15.10
2019-05-19T00:07:53.736Z,15.20
2019-05-19T00:20:17.915Z,15.40
2019-05-19T00:22:45.477Z,15.40
2019-05-19T00:47:34.000Z,15.00
2019-05-19T00:50:01.720Z,15.00
2019-05-19T00:52:29.222Z,15.00
2019-05-19T00:54:56.807Z,14.90
2019-05-19T00:57:25.072Z,14.80
2019-05-19T00:59:52.650Z,14.80
2019-05-19T01:02:20.155Z,14.90
2019-05-19T01:04:47.683Z,14.80
2019-05-19T01:07:15.166Z,15.20
2019-05-19T01:09:43.436Z,15.00
2019-05-19T01:12:10.935Z,14.90
2019-05-19T01:14:38.548Z,15.00
2019-05-19T01:17:06.226Z,15.10
2019-05-19T01:19:33.886Z,15.00
2019-05-19T01:22:01.381Z,14.80
2019-05-19T01:24:29.024Z,15.10
2019-05-19T01:26:58.033Z,15.00
2019-05-19T01:29:26.400Z,14.80
2019-05-19T01:31:54.070Z,14.80
2019-05-19T01:34:21.630Z,14.90
2019-05-19T01:36:49.193Z,14.90
2019-05-19T01:39:16.693Z,14.90
2019-05-19T01:41:45.092Z,14.90
2019-05-19T01:44:12.610Z,14.80
2019-05-19T01:46:40.174Z,14.90
2019-05-19T01:49:07.736Z,14.70
2019-05-19T01:51:36.120Z,14.90
2019-05-19T01:54:04.427Z,14.80
2019-05-19T01:56:32.688Z,14.70
2019-05-19T01:59:00.209Z,14.80
2019-05-19T02:01:27.802Z,14.90
2019-05-19T02:03:56.087Z,14.40
2019-05-19T02:06:25.097Z,14.30
2019-05-19T02:08:53.453Z,14.40
2019-05-19T02:11:20.971Z,14.30
2019-05-19T02:13:48.476Z,14.40
2019-05-19T02:16:16.051Z,14.50
2019-05-19T02:18:43.614Z,14.60
2019-05-19T02:21:11.234Z,14.70
2019-05-19T02:23:38.858Z,14.80
2019-05-19T02:26:06.423Z,14.40
2019-05-19T02:28:34.693Z,14.40
2019-05-19T02:31:02.263Z,14.50
2019-05-19T02:33:29.843Z,14.40
2019-05-19T02:35:58.114Z,14.40
2019-05-19T02:38:25.610Z,14.50
2019-05-19T02:40:53.127Z,14.30
2019-05-19T02:43:20.634Z,14.20
2019-05-19T02:45:48.373Z,14.10
2019-05-19T02:48:15.952Z,14.20
2019-05-19T02:50:52.268Z,14.20
2019-05-19T02:53:12.082Z,14.20
2019-05-19T02:55:39.575Z,14.30
2019-05-19T02:58:07.086Z,14.30
2019-05-19T03:00:35.413Z,14.10
2019-05-19T03:03:04.024Z,14.20
2019-05-19T03:05:31.530Z,14.10
2019-05-19T03:07:59.103Z,14.50
2019-05-19T03:10:26.718Z,14.10
2019-05-19T03:12:54.238Z,14.20
2019-05-19T03:15:21.804Z,14.30
2019-05-19T03:27:46.317Z,14.40
2019-05-19T03:30:19.641Z,14.50
2019-05-19T03:32:47.148Z,14.20
2019-05-19T03:35:15.454Z,14.10
2019-05-19T03:37:43.076Z,14.00
2019-05-19T03:40:10.747Z,14.50
2019-05-19T03:42:39.376Z,14.80
2019-05-19T03:50:05.788Z,14.00
2019-05-19T03:52:33.325Z,14.00
2019-05-19T03:57:31.375Z,14.50
2019-05-19T03:59:59.645Z,14.50
2019-05-19T04:02:27.215Z,14.50
2019-05-19T04:04:54.879Z,14.20
2019-05-19T04:07:22.541Z,14.40
2019-05-19T04:09:50.059Z,14.20
2019-05-19T04:17:16.436Z,14.50
2019-05-19T04:19:44.351Z,14.40
2019-05-19T04:22:12.730Z,14.40
2019-05-19T04:24:41.051Z,14.40
2019-05-19T04:27:09.775Z,14.00
2019-05-19T04:29:39.435Z,14.20
2019-05-19T04:32:05.563Z,14.20
2019-05-19T04:34:33.182Z,14.30
2019-05-19T04:37:00.800Z,14.20
2019-05-19T04:39:29.070Z,14.20
2019-05-19T04:41:56.556Z,14.20
2019-05-19T04:44:24.925Z,14.40
2019-05-19T04:46:54.091Z,14.30
2019-05-19T04:49:21.699Z,14.30
2019-05-19T04:52:05.455Z,14.20
2019-05-19T04:54:18.361Z,14.00
2019-05-19T04:56:46.678Z,14.10
2019-05-19T04:59:14.301Z,14.10
2019-05-19T05:04:11.021Z,14.10
2019-05-19T05:06:38.520Z,14.00
2019-05-19T05:09:06.391Z,14.10
2019-05-19T05:11:34.050Z,13.90
2019-05-19T05:14:01.584Z,14.00
2019-05-19T05:16:29.209Z,14.00
2019-05-19T05:18:56.790Z,13.80
2019-05-19T05:21:24.309Z,13.90
2019-05-19T05:23:52.584Z,14.20
2019-05-19T05:26:20.264Z,14.20
2019-05-19T05:28:47.939Z,14.30
2019-05-19T05:31:16.403Z,14.40
2019-05-19T05:33:43.979Z,14.20
2019-05-19T05:36:11.492Z,14.10
2019-05-19T05:38:41.971Z,14.30
2019-05-19T05:41:09.477Z,14.30
2019-05-19T05:43:37.068Z,14.20
2019-05-19T05:46:04.874Z,14.20
2019-05-19T05:48:32.434Z,14.30
2019-05-19T05:50:59.932Z,14.10
2019-05-19T05:53:27.411Z,14.10
2019-05-19T05:55:55.130Z,14.30
2019-05-19T05:58:22.788Z,14.30
2019-05-19T06:00:50.373Z,14.40
2019-05-19T06:03:18.626Z,14.20
2019-05-19T06:05:46.122Z,14.10
2019-05-19T06:08:14.486Z,14.50
2019-05-19T06:10:41.987Z,14.40
2019-05-19T06:13:09.502Z,14.40
2019-05-19T06:15:37.189Z,14.40
2019-05-19T06:18:05.466Z,14.40
2019-05-19T06:20:33.763Z,14.20
2019-05-19T06:23:02.027Z,14.30
2019-05-19T06:25:29.731Z,14.30
2019-05-19T06:27:57.268Z,14.30
2019-05-19T06:30:25.527Z,14.50
2019-05-19T06:32:53.813Z,14.30
2019-05-19T06:35:21.369Z,14.40
2019-05-19T06:37:48.870Z,14.40
2019-05-19T06:40:16.393Z,14.40
2019-05-19T06:42:43.973Z,14.50
2019-05-19T06:45:11.711Z,14.50
2019-05-19T06:47:39.240Z,14.40
2019-05-19T06:50:06.865Z,14.30
2019-05-19T06:52:34.384Z,14.30
2019-05-19T06:55:01.888Z,14.50
2019-05-19T06:57:29.405Z,14.40
2019-05-19T06:59:56.901Z,14.30
2019-05-19T07:02:24.589Z,14.30
2019-05-19T07:04:52.949Z,14.40
2019-05-19T07:07:20.483Z,14.40
2019-05-19T07:09:57.794Z,14.50
2019-05-19T07:12:15.568Z,14.50
2019-05-19T07:14:43.859Z,14.70
2019-05-19T07:17:12.169Z,14.90
2019-05-19T07:19:39.996Z,14.90
2019-05-19T07:22:07.549Z,14.90
2019-05-19T07:24:35.050Z,14.90
2019-05-19T07:27:03.492Z,14.90
2019-05-19T07:29:30.979Z,14.90
2019-05-19T07:31:59.333Z,15.00
2019-05-19T07:34:26.892Z,14.90
2019-05-19T07:36:54.466Z,15.00
2019-05-19T07:39:22.065Z,15.00
2019-05-19T07:41:49.617Z,15.10
2019-05-19T07:44:17.122Z,15.30
2019-05-19T07:46:44.798Z,15.20
2019-05-19T07:49:12.303Z,15.40
2019-05-19T07:51:39.962Z,15.50
2019-05-19T07:54:07.525Z,15.70
2019-05-19T07:56:35.183Z,15.60
2019-05-19T07:59:03.476Z,15.60
2019-05-19T08:01:31.034Z,15.60
2019-05-19T08:03:59.564Z,15.40
2019-05-19T08:06:27.049Z,15.40
2019-05-19T08:08:54.641Z,15.40
2019-05-19T08:11:22.259Z,15.30
2019-05-19T08:13:49.745Z,15.30
2019-05-19T08:16:17.397Z,15.30
2019-05-19T08:18:44.890Z,15.40
2019-05-19T08:21:12.456Z,15.50
2019-05-19T08:23:40.191Z,15.50
2019-05-19T08:26:07.685Z,15.50
2019-05-19T08:28:35.394Z,15.60
2019-05-19T08:31:04.635Z,15.60
2019-05-19T08:33:32.253Z,15.60
2019-05-19T08:36:00.633Z,15.50
2019-05-19T08:38:28.145Z,15.50
2019-05-19T08:40:55.875Z,15.60
2019-05-19T08:43:23.426Z,15.50
2019-05-19T08:45:51.695Z,15.50
2019-05-19T08:48:19.203Z,15.50
2019-05-19T08:50:46.757Z,15.50
2019-05-19T08:53:14.291Z,15.40
2019-05-19T08:55:41.819Z,15.50
2019-05-19T08:58:09.538Z,15.50
2019-05-19T09:00:38.544Z,15.50
2019-05-19T09:03:06.202Z,15.50
2019-05-19T09:05:34.570Z,15.50
2019-05-19T09:08:04.494Z,15.50
2019-05-19T09:10:32.765Z,15.50
2019-05-19T09:13:00.576Z,15.50
2019-05-19T09:15:28.088Z,15.50
2019-05-19T09:17:55.664Z,15.50
2019-05-19T09:20:23.334Z,15.40
2019-05-19T09:22:51.646Z,15.50
2019-05-19T09:25:19.155Z,15.50
2019-05-19T09:27:46.673Z,15.60
2019-05-19T09:30:14.302Z,15.70
2019-05-19T09:32:42.686Z,15.70
2019-05-19T09:35:10.987Z,15.70
2019-05-19T09:37:39.280Z,15.80
2019-05-19T09:40:08.137Z,15.90
2019-05-19T09:42:35.632Z,15.90
2019-05-19T09:45:04.609Z,15.90
2019-05-19T09:47:32.134Z,15.90
2019-05-19T09:49:59.725Z,16.10
2019-05-19T09:52:27.345Z,16.20
2019-05-19T09:54:54.838Z,16.40
2019-05-19T09:57:22.632Z,16.40
2019-05-19T09:59:50.301Z,16.50
2019-05-19T10:02:17.867Z,16.50
2019-05-19T10:04:46.148Z,16.70
2019-05-19T10:07:14.045Z,16.70
2019-05-19T10:09:53.904Z,16.80
2019-05-19T10:12:21.517Z,16.80
2019-05-19T10:14:49.095Z,16.90
2019-05-19T10:17:16.577Z,17.00
2019-05-19T10:19:44.935Z,17.10
2019-05-19T10:22:12.463Z,17.10
2019-05-19T10:24:39.947Z,17.20
2019-05-19T10:27:07.639Z,17.20
2019-05-19T10:29:35.308Z,17.30
2019-05-19T10:32:04.600Z,17.30
2019-05-19T10:34:32.088Z,17.30
2019-05-19T10:37:00.542Z,17.30
2019-05-19T10:39:28.245Z,17.30
2019-05-19T10:41:55.774Z,17.40
2019-05-19T10:44:23.437Z,17.40
2019-05-19T10:46:51.007Z,17.40
2019-05-19T10:49:19.547Z,17.50
2019-05-19T10:51:47.056Z,17.50
2019-05-19T10:54:16.180Z,17.40
2019-05-19T10:56:43.857Z,17.40
2019-05-19T10:59:12.107Z,17.50
2019-05-19T11:01:40.607Z,17.50
2019-05-19T11:04:08.999Z,17.60
2019-05-19T11:06:36.631Z,17.60
2019-05-19T11:09:04.294Z,17.70
2019-05-19T11:11:31.864Z,17.70
2019-05-19T11:13:59.360Z,17.80
2019-05-19T11:16:27.037Z,17.90
2019-05-19T11:18:55.381Z,17.80
2019-05-19T11:21:22.885Z,17.80
2019-05-19T11:23:51.282Z,17.90
2019-05-19T11:26:18.848Z,17.90
2019-05-19T11:28:46.522Z,18.00
2019-05-19T11:31:14.037Z,17.80
2019-05-19T11:33:42.308Z,17.90
2019-05-19T11:36:10.884Z,18.00
2019-05-19T11:38:38.456Z,18.00
2019-05-19T11:41:05.994Z,18.20
2019-05-19T11:43:33.587Z,18.30
2019-05-19T11:46:01.085Z,18.50
2019-05-19T11:48:28.702Z,18.60
2019-05-19T11:50:56.283Z,18.60
2019-05-19T11:53:24.790Z,18.90
2019-05-19T11:56:05.819Z,18.90
2019-05-19T11:58:20.853Z,18.90
2019-05-19T12:00:48.344Z,18.70
2019-05-19T12:03:15.936Z,18.90
2019-05-19T12:05:43.634Z,18.80
2019-05-19T12:08:12.004Z,18.90
2019-05-19T12:10:40.958Z,18.90
2019-05-19T12:13:09.902Z,18.90
2019-05-19T12:15:39.006Z,18.90
2019-05-19T12:18:09.150Z,18.80
2019-05-19T12:20:37.911Z,18.70
2019-05-19T12:23:05.482Z,18.70
2019-05-19T12:25:34.686Z,18.70
2019-05-19T12:28:05.641Z,18.90
2019-05-19T12:30:33.132Z,18.90
2019-05-19T12:33:00.730Z,18.80
2019-05-19T12:35:29.858Z,18.20
2019-05-19T12:37:58.163Z,18.30
2019-05-19T12:40:25.785Z,18.30
2019-05-19T12:42:53.382Z,18.30
2019-05-19T12:45:20.932Z,18.50
2019-05-19T12:47:49.231Z,18.50
2019-05-19T12:50:16.722Z,18.50
2019-05-19T12:52:44.764Z,18.40
2019-05-19T12:55:13.027Z,18.30
2019-05-19T12:57:41.491Z,18.60
2019-05-19T13:00:09.100Z,18.60
2019-05-19T13:05:05.494Z,18.90
2019-05-19T13:07:29.511Z,18.90
2019-05-19T13:09:57.016Z,19.00
2019-05-19T13:12:24.505Z,19.10
2019-05-19T13:14:52.077Z,18.90
2019-05-19T13:17:20.248Z,18.60
2019-05-19T13:19:47.753Z,18.50
2019-05-19T13:22:16.147Z,18.20
2019-05-19T13:24:44.401Z,18.20
2019-05-19T13:27:12.831Z,18.50
2019-05-19T13:29:40.452Z,18.50
2019-05-19T13:32:08.117Z,18.60
2019-05-19T13:34:35.678Z,18.60
2019-05-19T13:37:04.763Z,18.30
2019-05-19T13:39:32.465Z,18.30
2019-05-19T13:42:00.741Z,18.30
2019-05-19T13:44:29.066Z,18.40
2019-05-19T13:46:56.547Z,18.40
2019-05-19T13:49:24.237Z,18.80
2019-05-19T13:51:51.940Z,19.00
2019-05-19T13:54:19.430Z,19.10
2019-05-19T13:56:47.029Z,19.00
2019-05-19T13:59:14.548Z,19.20
2019-05-19T14:01:42.088Z,19.30
2019-05-19T14:04:10.455Z,19.80
2019-05-19T14:06:39.032Z,19.70
2019-05-19T14:09:06.591Z,19.70
2019-05-19T14:11:34.917Z,19.70
2019-05-19T14:14:02.415Z,19.70
2019-05-19T14:16:30.046Z,19.70
2019-05-19T14:18:57.586Z,19.50
2019-05-19T14:21:25.906Z,19.20
2019-05-19T14:23:53.432Z,19.20
2019-05-19T14:26:21.811Z,19.30
2019-05-19T14:28:50.182Z,19.70
2019-05-19T14:31:17.802Z,19.70
2019-05-19T14:33:45.316Z,19.70
2019-05-19T14:36:12.887Z,19.30
2019-05-19T14:38:40.412Z,19.40
2019-05-19T14:41:07.904Z,19.20
2019-05-19T14:43:35.483Z,19.00
2019-05-19T14:46:04.464Z,19.70
2019-05-19T14:48:32.017Z,19.60
2019-05-19T14:50:59.600Z,19.50
2019-05-19T14:53:27.113Z,19.70
2019-05-19T14:55:54.736Z,19.60
2019-05-19T14:58:22.986Z,19.50
2019-05-19T15:00:50.604Z,19.50
2019-05-19T15:03:18.389Z,19.30
2019-05-19T15:05:45.873Z,19.20
2019-05-19T15:08:13.478Z,19.30
2019-05-19T15:10:41.751Z,19.40
2019-05-19T15:13:09.442Z,19.40
2019-05-19T15:15:37.053Z,18.90
2019-05-19T15:18:04.654Z,19.10
2019-05-19T15:20:33.009Z,19.10
2019-05-19T15:23:00.711Z,19.10
2019-05-19T15:25:29.090Z,19.00
2019-05-19T15:28:00.639Z,19.40
2019-05-19T15:30:25.839Z,19.40
2019-05-19T15:32:53.522Z,19.30
2019-05-19T15:35:21.782Z,19.50
2019-05-19T15:37:49.351Z,19.50
2019-05-19T15:40:16.917Z,19.00
2019-05-19T15:42:44.480Z,18.80
2019-05-19T15:45:12.886Z,18.70
2019-05-19T15:47:41.245Z,18.90
2019-05-19T15:50:09.883Z,18.40
2019-05-19T15:52:38.626Z,18.20
2019-05-19T15:55:07.430Z,18.20
2019-05-19T15:57:34.910Z,18.20
2019-05-19T16:00:03.451Z,18.40
2019-05-19T16:02:30.553Z,18.40
2019-05-19T16:04:58.893Z,19.00
2019-05-19T16:07:26.569Z,19.00
2019-05-19T16:09:54.136Z,19.10
2019-05-19T16:12:21.689Z,19.00
2019-05-19T16:14:49.199Z,19.00
2019-05-19T16:17:17.234Z,18.20
2019-05-19T16:19:44.925Z,17.90
2019-05-19T16:22:13.214Z,17.90
2019-05-19T16:24:41.563Z,17.50
2019-05-19T16:27:09.248Z,17.50
2019-05-19T16:29:37.635Z,17.60
2019-05-19T16:32:07.008Z,17.80
2019-05-19T16:34:34.599Z,17.80
2019-05-19T16:37:02.099Z,17.70
2019-05-19T16:39:29.618Z,17.10
2019-05-19T16:41:57.189Z,17.90
2019-05-19T16:44:25.572Z,17.80
2019-05-19T16:46:53.075Z,17.80
2019-05-19T16:49:21.356Z,17.80
2019-05-19T16:51:49.062Z,17.80
2019-05-19T16:54:17.996Z,17.50
2019-05-19T16:56:46.350Z,17.60
2019-05-19T16:59:13.868Z,17.60
2019-05-19T17:01:41.378Z,16.90
2019-05-19T17:04:09.639Z,17.20
2019-05-19T17:06:37.150Z,17.20
2019-05-19T17:09:05.499Z,17.50
2019-05-19T17:11:33.124Z,17.50
2019-05-19T17:14:00.631Z,17.00
2019-05-19T17:16:28.192Z,17.40
2019-05-19T17:18:55.687Z,17.20
2019-05-19T17:21:23.864Z,17.20
2019-05-19T17:23:52.319Z,17.10
2019-05-19T17:26:19.886Z,17.00
2019-05-19T17:28:59.795Z,16.80
2019-05-19T17:31:16.749Z,16.60
2019-05-19T17:33:44.252Z,16.60
2019-05-19T17:36:11.734Z,17.10
2019-05-19T17:38:39.283Z,17.20
2019-05-19T17:41:06.824Z,16.90
2019-05-19T17:43:35.081Z,16.70
2019-05-19T17:46:02.747Z,16.70
2019-05-19T17:48:31.010Z,16.90
2019-05-19T17:50:58.496Z,16.90
2019-05-19T17:53:26.096Z,17.30
2019-05-19T17:55:53.593Z,17.30
2019-05-19T17:58:21.287Z,16.70
2019-05-19T18:00:49.702Z,16.70
2019-05-19T18:03:18.059Z,16.20
2019-05-19T18:05:45.559Z,16.20
2019-05-19T18:08:13.054Z,15.80
2019-05-19T18:10:40.643Z,16.40
2019-05-19T18:13:08.311Z,16.30
2019-05-19T18:15:35.873Z,17.00
2019-05-19T18:18:04.463Z,16.10
2019-05-19T18:20:31.964Z,16.10
2019-05-19T18:22:59.501Z,16.30
2019-05-19T18:25:27.112Z,15.80
2019-05-19T18:27:54.609Z,16.10
2019-05-19T18:30:22.107Z,15.70
2019-05-19T18:32:50.370Z,15.90
2019-05-19T18:35:18.636Z,15.60
2019-05-19T18:37:46.120Z,15.60
2019-05-19T18:40:14.626Z,16.10
2019-05-19T18:42:42.132Z,16.10
2019-05-19T18:45:09.640Z,15.80
2019-05-19T18:47:37.905Z,16.40
2019-05-19T18:50:06.273Z,16.60
2019-05-19T18:52:33.784Z,16.60
2019-05-19T18:55:01.555Z,16.70
2019-05-19T18:57:29.075Z,16.70
2019-05-19T18:59:56.579Z,16.60
2019-05-19T19:02:24.314Z,16.00
2019-05-19T19:04:53.410Z,16.30
2019-05-19T19:07:20.897Z,16.30
2019-05-19T19:09:49.154Z,16.10
2019-05-19T19:12:16.815Z,16.10
2019-05-19T19:14:44.437Z,16.00
2019-05-19T19:17:11.949Z,16.50
2019-05-19T19:19:39.432Z,15.60
2019-05-19T19:22:07.788Z,15.50
2019-05-19T19:24:38.542Z,15.20
2019-05-19T19:27:04.775Z,15.80
2019-05-19T19:29:32.323Z,15.70
2019-05-19T19:31:59.992Z,15.80
2019-05-19T19:34:27.555Z,16.00
2019-05-19T19:36:55.058Z,16.30
2019-05-19T19:39:22.685Z,15.90
2019-05-19T19:41:50.448Z,15.70
2019-05-19T19:44:18.418Z,16.10
2019-05-19T19:46:46.098Z,16.20
2019-05-19T19:49:15.436Z,15.70
2019-05-19T19:51:42.964Z,15.60
2019-05-19T19:54:10.466Z,15.50
2019-05-19T19:56:37.962Z,15.60
2019-05-19T19:59:05.652Z,15.60
2019-05-19T20:01:33.167Z,15.70
2019-05-19T20:04:00.779Z,15.20
2019-05-19T20:06:28.343Z,15.20
2019-05-19T20:08:55.919Z,15.40
2019-05-19T20:11:24.286Z,15.40
2019-05-19T20:13:51.826Z,15.50
2019-05-19T20:16:20.186Z,15.40
2019-05-19T20:18:48.131Z,15.50
2019-05-19T20:21:16.792Z,16.10
2019-05-19T20:23:44.436Z,16.10
2019-05-19T20:26:12.121Z,15.80
2019-05-19T20:28:39.963Z,15.90
2019-05-19T20:31:07.468Z,16.00
2019-05-19T20:33:35.192Z,15.40
2019-05-19T20:36:03.631Z,15.90
2019-05-19T20:38:31.298Z,15.90
2019-05-19T20:40:59.695Z,15.80
2019-05-19T20:43:28.175Z,15.80
2019-05-19T20:45:56.551Z,15.40
2019-05-19T20:48:24.991Z,15.50
2019-05-19T20:50:52.908Z,15.50
2019-05-19T20:53:20.477Z,15.60
2019-05-19T20:55:48.740Z,15.80
2019-05-19T20:58:16.425Z,15.80
2019-05-19T21:00:50.690Z,15.50
2019-05-19T21:03:13.802Z,15.50
2019-05-19T21:05:41.471Z,15.30
2019-05-19T21:08:09.835Z,14.70
2019-05-19T21:10:38.691Z,14.60
2019-05-19T21:13:06.196Z,14.90
2019-05-19T21:15:33.678Z,14.70
2019-05-19T21:18:02.045Z,14.80
2019-05-19T21:20:29.722Z,14.70
2019-05-19T21:22:58.080Z,15.40
2019-05-19T21:25:25.585Z,15.40
2019-05-19T21:27:53.101Z,15.30
2019-05-19T21:30:20.598Z,15.50
2019-05-19T21:32:48.848Z,15.50
2019-05-19T21:35:16.347Z,15.50
2019-05-19T21:37:44.613Z,15.70
2019-05-19T21:40:12.906Z,15.40
2019-05-19T21:42:41.270Z,15.00
2019-05-19T21:45:08.823Z,15.00
2019-05-19T21:47:36.508Z,15.00
2019-05-19T21:50:07.030Z,14.90
2019-05-19T21:52:34.846Z,15.00
2019-05-19T21:55:02.719Z,15.30
2019-05-19T21:57:30.224Z,14.60
2019-05-19T21:59:57.763Z,15.10
2019-05-19T22:02:25.376Z,15.20
2019-05-19T22:04:53.647Z,15.00
2019-05-19T22:07:23.775Z,15.10
2019-05-19T22:09:51.336Z,15.10
2019-05-19T22:12:19.708Z,14.90
2019-05-19T22:14:47.978Z,14.80
2019-05-19T22:17:15.561Z,14.80
2019-05-19T22:19:43.820Z,14.90
2019-05-19T22:22:11.343Z,14.80
2019-05-19T22:24:39.094Z,14.90
2019-05-19T22:27:07.482Z,14.90
2019-05-19T22:29:36.676Z,14.80
2019-05-19T22:32:05.039Z,15.10
2019-05-19T22:34:32.653Z,15.00
2019-05-19T22:37:00.183Z,15.30
2019-05-19T22:39:28.451Z,15.30
2019-05-19T22:41:56.006Z,15.30
2019-05-19T22:44:23.666Z,15.40
2019-05-19T22:46:51.280Z,15.20
2019-05-19T22:49:18.774Z,15.40
2019-05-19T22:51:46.277Z,15.30
2019-05-19T22:54:14.766Z,14.70
2019-05-19T22:56:42.391Z,14.60
2019-05-19T22:59:19.202Z,14.60
2019-05-19T23:01:51.038Z,15.00
2019-05-19T23:04:06.669Z,15.30
2019-05-19T23:06:34.938Z,15.40
2019-05-19T23:09:02.703Z,15.30
2019-05-19T23:11:30.367Z,15.40
2019-05-19T23:13:57.923Z,14.80
2019-05-19T23:16:25.491Z,14.20
2019-05-19T23:18:53.056Z,14.10
2019-05-19T23:21:20.825Z,14.20
2019-05-19T23:23:48.324Z,14.10
2019-05-19T23:26:15.850Z,14.40
2019-05-19T23:28:43.423Z,14.40
2019-05-19T23:31:11.029Z,15.00
2019-05-19T23:33:38.746Z,14.70
2019-05-19T23:36:06.259Z,14.70
2019-05-19T23:38:33.790Z,14.60
2019-05-19T23:41:01.295Z,14.90
2019-05-19T23:43:28.777Z,14.90
2019-05-19T23:45:56.265Z,14.90
2019-05-19T23:48:23.839Z,14.50
2019-05-19T23:50:52.090Z,14.10
2019-05-19T23:53:19.775Z,14.10
2019-05-19T23:55:47.448Z,13.90
2019-05-19T23:58:15.030Z,14.50
